sensor_id;sensor_type;location;lat;lon;timestamp;P1;durP1;ratioP1;P2;durP2;ratioP2
5279;SDS011;2663;53.588;10.010;2022-11-15T00:00:34;45.87;;;22.40;;
5279;SDS011;2663;53.588;10.010;2022-11-15T00:03:00;40.10;;;21.43;;
5279;SDS011;2663;53.588;10.010;2022-11-15T00:05:27;34.70;;;20.17;;
5279;SDS011;2663;53.588;10.010;2022-11-15T00:07:54;39.13;;;21.50;;
5279;SDS011;2663;53.588;10.010;2022-11-15T00:10:22;40.80;;;22.20;;
5279;SDS011;2663;53.588;10.010;2022-11-15T00:12:49;44.03;;;22.40;;
5279;SDS011;2663;53.588;10.010;2022-11-15T00:15:15;36.70;;;20.07;;
5279;SDS011;2663;53.588;10.010;2022-11-15T00:17:42;44.40;;;21.50;;
5279;SDS011;2663;53.588;10.010;2022-11-15T00:20:09;42.70;;;23.43;;
5279;SDS011;2663;53.588;10.010;2022-11-15T00:22:36;41.00;;;20.93;;
5279;SDS011;2663;53.588;10.010;2022-11-15T00:25:02;39.10;;;21.43;;
5279;SDS011;2663;53.588;10.010;2022-11-15T00:27:29;37.47;;;20.13;;
5279;SDS011;2663;53.588;10.010;2022-11-15T00:29:56;39.53;;;21.57;;
5279;SDS011;2663;53.588;10.010;2022-11-15T00:32:22;41.37;;;20.47;;
5279;SDS011;2663;53.588;10.010;2022-11-15T00:34:49;39.80;;;20.90;;
5279;SDS011;2663;53.588;10.010;2022-11-15T00:37:16;38.30;;;21.30;;
5279;SDS011;2663;53.588;10.010;2022-11-15T00:39:42;36.07;;;20.53;;
5279;SDS011;2663;53.588;10.010;2022-11-15T00:42:09;39.20;;;20.97;;
5279;SDS011;2663;53.588;10.010;2022-11-15T00:44:35;38.87;;;21.23;;
5279;SDS011;2663;53.588;10.010;2022-11-15T00:47:02;35.13;;;19.20;;
5279;SDS011;2663;53.588;10.010;2022-11-15T00:49:29;50.87;;;20.60;;
5279;SDS011;2663;53.588;10.010;2022-11-15T00:51:55;37.00;;;21.13;;
5279;SDS011;2663;53.588;10.010;2022-11-15T00:54:22;40.97;;;21.60;;
5279;SDS011;2663;53.588;10.010;2022-11-15T00:56:49;40.17;;;21.60;;
5279;SDS011;2663;53.588;10.010;2022-11-15T00:59:15;40.57;;;20.53;;
5279;SDS011;2663;53.588;10.010;2022-11-15T01:01:42;40.67;;;20.83;;
5279;SDS011;2663;53.588;10.010;2022-11-15T01:04:08;38.80;;;18.97;;
5279;SDS011;2663;53.588;10.010;2022-11-15T01:06:35;36.50;;;20.00;;
5279;SDS011;2663;53.588;10.010;2022-11-15T01:09:02;31.87;;;18.47;;
5279;SDS011;2663;53.588;10.010;2022-11-15T01:11:29;46.63;;;20.30;;
5279;SDS011;2663;53.588;10.010;2022-11-15T01:13:55;37.60;;;20.40;;
5279;SDS011;2663;53.588;10.010;2022-11-15T01:16:22;38.17;;;20.60;;
5279;SDS011;2663;53.588;10.010;2022-11-15T01:18:49;38.83;;;21.03;;
5279;SDS011;2663;53.588;10.010;2022-11-15T01:21:17;32.67;;;18.50;;
5279;SDS011;2663;53.588;10.010;2022-11-15T01:23:45;41.43;;;21.13;;
5279;SDS011;2663;53.588;10.010;2022-11-15T01:26:12;31.50;;;18.33;;
5279;SDS011;2663;53.588;10.010;2022-11-15T01:28:40;36.90;;;19.37;;
5279;SDS011;2663;53.588;10.010;2022-11-15T01:31:18;41.30;;;21.23;;
5279;SDS011;2663;53.588;10.010;2022-11-15T01:33:46;38.93;;;20.70;;
5279;SDS011;2663;53.588;10.010;2022-11-15T01:36:14;36.40;;;19.30;;
5279;SDS011;2663;53.588;10.010;2022-11-15T01:38:54;40.40;;;21.53;;
5279;SDS011;2663;53.588;10.010;2022-11-15T01:41:23;36.10;;;19.77;;
5279;SDS011;2663;53.588;10.010;2022-11-15T01:43:52;41.23;;;20.47;;
5279;SDS011;2663;53.588;10.010;2022-11-15T01:46:22;37.17;;;19.40;;
5279;SDS011;2663;53.588;10.010;2022-11-15T01:49:01;33.80;;;19.17;;
5279;SDS011;2663;53.588;10.010;2022-11-15T01:51:37;38.37;;;19.30;;
5279;SDS011;2663;53.588;10.010;2022-11-15T01:54:05;38.10;;;20.07;;
5279;SDS011;2663;53.588;10.010;2022-11-15T01:56:37;41.40;;;20.93;;
5279;SDS011;2663;53.588;10.010;2022-11-15T01:59:13;39.23;;;19.80;;
5279;SDS011;2663;53.588;10.010;2022-11-15T02:01:40;35.33;;;20.10;;
5279;SDS011;2663;53.588;10.010;2022-11-15T02:04:14;42.83;;;20.37;;
5279;SDS011;2663;53.588;10.010;2022-11-15T02:06:45;34.87;;;19.00;;
5279;SDS011;2663;53.588;10.010;2022-11-15T02:09:15;39.27;;;20.13;;
5279;SDS011;2663;53.588;10.010;2022-11-15T02:11:43;35.67;;;18.90;;
5279;SDS011;2663;53.588;10.010;2022-11-15T02:14:11;35.07;;;18.33;;
5279;SDS011;2663;53.588;10.010;2022-11-15T02:22:13;36.50;;;19.80;;
5279;SDS011;2663;53.588;10.010;2022-11-15T02:25:03;33.90;;;19.20;;
5279;SDS011;2663;53.588;10.010;2022-11-15T02:30:38;34.00;;;19.60;;
5279;SDS011;2663;53.588;10.010;2022-11-15T02:36:02;37.30;;;19.10;;
5279;SDS011;2663;53.588;10.010;2022-11-15T02:41:35;34.90;;;18.23;;
5279;SDS011;2663;53.588;10.010;2022-11-15T02:44:21;34.53;;;19.03;;
5279;SDS011;2663;53.588;10.010;2022-11-15T02:47:09;41.60;;;20.87;;
5279;SDS011;2663;53.588;10.010;2022-11-15T02:49:40;33.47;;;19.40;;
5279;SDS011;2663;53.588;10.010;2022-11-15T02:52:16;33.40;;;18.40;;
5279;SDS011;2663;53.588;10.010;2022-11-15T02:54:52;28.90;;;18.33;;
5279;SDS011;2663;53.588;10.010;2022-11-15T02:57:20;32.10;;;18.10;;
5279;SDS011;2663;53.588;10.010;2022-11-15T03:00:08;42.10;;;18.57;;
5279;SDS011;2663;53.588;10.010;2022-11-15T03:05:30;29.80;;;17.90;;
5279;SDS011;2663;53.588;10.010;2022-11-15T03:11:13;32.10;;;17.97;;
5279;SDS011;2663;53.588;10.010;2022-11-15T03:13:47;28.03;;;16.20;;
5279;SDS011;2663;53.588;10.010;2022-11-15T03:19:21;32.90;;;18.63;;
5279;SDS011;2663;53.588;10.010;2022-11-15T03:21:51;31.97;;;18.03;;
5279;SDS011;2663;53.588;10.010;2022-11-15T03:24:21;30.03;;;17.53;;
5279;SDS011;2663;53.588;10.010;2022-11-15T03:26:51;37.97;;;18.73;;
5279;SDS011;2663;53.588;10.010;2022-11-15T03:29:22;33.23;;;17.70;;
5279;SDS011;2663;53.588;10.010;2022-11-15T03:31:54;27.87;;;16.70;;
5279;SDS011;2663;53.588;10.010;2022-11-15T03:34:36;31.90;;;16.97;;
5279;SDS011;2663;53.588;10.010;2022-11-15T03:37:10;37.67;;;18.33;;
5279;SDS011;2663;53.588;10.010;2022-11-15T03:39:40;34.63;;;16.73;;
5279;SDS011;2663;53.588;10.010;2022-11-15T03:42:15;30.20;;;16.77;;
5279;SDS011;2663;53.588;10.010;2022-11-15T03:45:01;34.07;;;18.00;;
5279;SDS011;2663;53.588;10.010;2022-11-15T03:47:53;26.73;;;16.73;;
5279;SDS011;2663;53.588;10.010;2022-11-15T03:50:21;30.17;;;16.90;;
5279;SDS011;2663;53.588;10.010;2022-11-15T03:52:51;36.63;;;16.17;;
5279;SDS011;2663;53.588;10.010;2022-11-15T03:55:20;28.13;;;15.20;;
5279;SDS011;2663;53.588;10.010;2022-11-15T03:57:48;29.43;;;16.50;;
5279;SDS011;2663;53.588;10.010;2022-11-15T04:00:18;27.60;;;16.40;;
5279;SDS011;2663;53.588;10.010;2022-11-15T04:02:45;35.90;;;18.40;;
5279;SDS011;2663;53.588;10.010;2022-11-15T04:05:11;32.77;;;16.27;;
5279;SDS011;2663;53.588;10.010;2022-11-15T04:07:38;30.57;;;16.67;;
5279;SDS011;2663;53.588;10.010;2022-11-15T04:10:05;27.10;;;16.50;;
5279;SDS011;2663;53.588;10.010;2022-11-15T04:12:33;28.73;;;15.93;;
5279;SDS011;2663;53.588;10.010;2022-11-15T04:15:05;29.13;;;16.40;;
5279;SDS011;2663;53.588;10.010;2022-11-15T04:17:43;28.07;;;16.43;;
5279;SDS011;2663;53.588;10.010;2022-11-15T04:20:16;33.27;;;16.77;;
5279;SDS011;2663;53.588;10.010;2022-11-15T04:23:09;29.60;;;15.07;;
5279;SDS011;2663;53.588;10.010;2022-11-15T04:26:01;26.80;;;16.70;;
5279;SDS011;2663;53.588;10.010;2022-11-15T04:28:33;28.97;;;15.97;;
5279;SDS011;2663;53.588;10.010;2022-11-15T04:31:00;36.70;;;15.10;;
5279;SDS011;2663;53.588;10.010;2022-11-15T04:33:26;31.10;;;16.50;;
5279;SDS011;2663;53.588;10.010;2022-11-15T04:35:53;27.00;;;16.20;;
5279;SDS011;2663;53.588;10.010;2022-11-15T04:38:38;34.03;;;16.07;;
5279;SDS011;2663;53.588;10.010;2022-11-15T04:41:05;24.63;;;14.70;;
5279;SDS011;2663;53.588;10.010;2022-11-15T04:43:31;26.20;;;14.50;;
5279;SDS011;2663;53.588;10.010;2022-11-15T04:45:59;26.60;;;15.53;;
5279;SDS011;2663;53.588;10.010;2022-11-15T04:48:25;32.53;;;16.77;;
5279;SDS011;2663;53.588;10.010;2022-11-15T04:50:52;25.10;;;14.77;;
5279;SDS011;2663;53.588;10.010;2022-11-15T04:53:18;29.50;;;16.00;;
5279;SDS011;2663;53.588;10.010;2022-11-15T04:55:45;29.63;;;16.10;;
5279;SDS011;2663;53.588;10.010;2022-11-15T04:58:12;31.47;;;16.43;;
5279;SDS011;2663;53.588;10.010;2022-11-15T05:00:39;26.43;;;15.47;;
5279;SDS011;2663;53.588;10.010;2022-11-15T05:03:06;35.30;;;16.17;;
5279;SDS011;2663;53.588;10.010;2022-11-15T05:05:53;24.90;;;14.30;;
5279;SDS011;2663;53.588;10.010;2022-11-15T05:08:20;26.20;;;14.33;;
5279;SDS011;2663;53.588;10.010;2022-11-15T05:10:47;24.10;;;15.40;;
5279;SDS011;2663;53.588;10.010;2022-11-15T05:13:14;31.30;;;15.43;;
5279;SDS011;2663;53.588;10.010;2022-11-15T05:15:40;27.13;;;15.00;;
5279;SDS011;2663;53.588;10.010;2022-11-15T05:18:07;24.73;;;15.43;;
5279;SDS011;2663;53.588;10.010;2022-11-15T05:20:33;24.27;;;14.00;;
5279;SDS011;2663;53.588;10.010;2022-11-15T05:23:00;26.33;;;15.50;;
5279;SDS011;2663;53.588;10.010;2022-11-15T05:25:27;30.60;;;16.87;;
5279;SDS011;2663;53.588;10.010;2022-11-15T05:27:54;30.50;;;14.40;;
5279;SDS011;2663;53.588;10.010;2022-11-15T05:30:20;24.47;;;14.90;;
5279;SDS011;2663;53.588;10.010;2022-11-15T05:32:47;26.63;;;14.70;;
5279;SDS011;2663;53.588;10.010;2022-11-15T05:35:30;28.63;;;15.47;;
5279;SDS011;2663;53.588;10.010;2022-11-15T05:38:07;30.27;;;16.27;;
5279;SDS011;2663;53.588;10.010;2022-11-15T05:40:34;24.17;;;14.67;;
5279;SDS011;2663;53.588;10.010;2022-11-15T05:43:01;27.77;;;14.23;;
5279;SDS011;2663;53.588;10.010;2022-11-15T05:45:29;28.10;;;15.80;;
5279;SDS011;2663;53.588;10.010;2022-11-15T05:47:57;26.03;;;14.50;;
5279;SDS011;2663;53.588;10.010;2022-11-15T05:50:27;29.73;;;15.63;;
5279;SDS011;2663;53.588;10.010;2022-11-15T05:52:54;23.70;;;13.70;;
5279;SDS011;2663;53.588;10.010;2022-11-15T05:55:27;23.33;;;13.80;;
5279;SDS011;2663;53.588;10.010;2022-11-15T05:57:54;24.53;;;14.53;;
5279;SDS011;2663;53.588;10.010;2022-11-15T06:00:20;27.13;;;14.53;;
5279;SDS011;2663;53.588;10.010;2022-11-15T06:02:47;23.27;;;12.77;;
5279;SDS011;2663;53.588;10.010;2022-11-15T06:05:14;22.40;;;13.90;;
5279;SDS011;2663;53.588;10.010;2022-11-15T06:07:40;21.73;;;13.93;;
5279;SDS011;2663;53.588;10.010;2022-11-15T06:10:07;27.43;;;15.40;;
5279;SDS011;2663;53.588;10.010;2022-11-15T06:12:34;24.20;;;13.57;;
5279;SDS011;2663;53.588;10.010;2022-11-15T06:15:01;25.23;;;15.97;;
5279;SDS011;2663;53.588;10.010;2022-11-15T06:17:28;23.67;;;14.50;;
5279;SDS011;2663;53.588;10.010;2022-11-15T06:19:55;25.30;;;13.90;;
5279;SDS011;2663;53.588;10.010;2022-11-15T06:22:21;22.67;;;14.17;;
5279;SDS011;2663;53.588;10.010;2022-11-15T06:24:48;31.77;;;16.60;;
5279;SDS011;2663;53.588;10.010;2022-11-15T06:27:15;22.87;;;14.90;;
5279;SDS011;2663;53.588;10.010;2022-11-15T06:29:41;24.97;;;14.17;;
5279;SDS011;2663;53.588;10.010;2022-11-15T06:32:08;26.23;;;15.40;;
5279;SDS011;2663;53.588;10.010;2022-11-15T06:34:35;25.20;;;13.67;;
5279;SDS011;2663;53.588;10.010;2022-11-15T06:37:02;21.63;;;13.83;;
5279;SDS011;2663;53.588;10.010;2022-11-15T06:39:28;23.80;;;13.87;;
5279;SDS011;2663;53.588;10.010;2022-11-15T06:41:55;29.80;;;15.73;;
5279;SDS011;2663;53.588;10.010;2022-11-15T06:44:22;24.97;;;15.40;;
5279;SDS011;2663;53.588;10.010;2022-11-15T06:46:48;21.67;;;13.90;;
5279;SDS011;2663;53.588;10.010;2022-11-15T06:49:15;27.63;;;12.00;;
5279;SDS011;2663;53.588;10.010;2022-11-15T06:51:42;36.47;;;15.93;;
5279;SDS011;2663;53.588;10.010;2022-11-15T06:54:09;36.83;;;18.53;;
5279;SDS011;2663;53.588;10.010;2022-11-15T06:56:36;27.57;;;16.23;;
5279;SDS011;2663;53.588;10.010;2022-11-15T06:59:02;29.07;;;16.17;;
5279;SDS011;2663;53.588;10.010;2022-11-15T07:01:29;25.03;;;12.03;;
5279;SDS011;2663;53.588;10.010;2022-11-15T07:03:55;22.77;;;12.43;;
5279;SDS011;2663;53.588;10.010;2022-11-15T07:06:22;19.73;;;12.13;;
5279;SDS011;2663;53.588;10.010;2022-11-15T07:08:49;22.00;;;13.00;;
5279;SDS011;2663;53.588;10.010;2022-11-15T07:11:15;18.77;;;11.73;;
5279;SDS011;2663;53.588;10.010;2022-11-15T07:13:42;23.73;;;13.30;;
5279;SDS011;2663;53.588;10.010;2022-11-15T07:16:09;21.07;;;12.47;;
5279;SDS011;2663;53.588;10.010;2022-11-15T07:18:37;22.90;;;12.00;;
5279;SDS011;2663;53.588;10.010;2022-11-15T07:21:06;29.50;;;14.37;;
5279;SDS011;2663;53.588;10.010;2022-11-15T07:23:36;26.80;;;15.00;;
5279;SDS011;2663;53.588;10.010;2022-11-15T07:26:04;28.10;;;16.80;;
5279;SDS011;2663;53.588;10.010;2022-11-15T07:28:31;32.83;;;13.37;;
5279;SDS011;2663;53.588;10.010;2022-11-15T07:31:01;32.03;;;14.87;;
5279;SDS011;2663;53.588;10.010;2022-11-15T07:33:28;23.40;;;13.43;;
5279;SDS011;2663;53.588;10.010;2022-11-15T07:35:58;25.03;;;15.63;;
5279;SDS011;2663;53.588;10.010;2022-11-15T07:38:28;29.37;;;15.00;;
5279;SDS011;2663;53.588;10.010;2022-11-15T07:40:58;23.40;;;14.40;;
5279;SDS011;2663;53.588;10.010;2022-11-15T07:43:26;24.07;;;14.23;;
5279;SDS011;2663;53.588;10.010;2022-11-15T07:45:54;25.47;;;14.50;;
5279;SDS011;2663;53.588;10.010;2022-11-15T07:48:24;22.00;;;12.90;;
5279;SDS011;2663;53.588;10.010;2022-11-15T07:51:05;29.43;;;16.00;;
5279;SDS011;2663;53.588;10.010;2022-11-15T07:53:39;26.47;;;14.50;;
5279;SDS011;2663;53.588;10.010;2022-11-15T07:56:06;26.43;;;14.40;;
5279;SDS011;2663;53.588;10.010;2022-11-15T07:58:33;23.70;;;13.83;;
5279;SDS011;2663;53.588;10.010;2022-11-15T08:01:06;23.23;;;13.47;;
5279;SDS011;2663;53.588;10.010;2022-11-15T08:03:35;24.77;;;15.07;;
5279;SDS011;2663;53.588;10.010;2022-11-15T08:06:02;26.60;;;13.43;;
5279;SDS011;2663;53.588;10.010;2022-11-15T08:08:28;25.10;;;13.07;;
5279;SDS011;2663;53.588;10.010;2022-11-15T08:10:57;24.87;;;13.30;;
5279;SDS011;2663;53.588;10.010;2022-11-15T08:13:24;24.30;;;12.73;;
5279;SDS011;2663;53.588;10.010;2022-11-15T08:15:50;22.43;;;13.67;;
5279;SDS011;2663;53.588;10.010;2022-11-15T08:18:23;26.17;;;14.10;;
5279;SDS011;2663;53.588;10.010;2022-11-15T08:20:50;28.63;;;14.60;;
5279;SDS011;2663;53.588;10.010;2022-11-15T08:23:17;25.07;;;13.60;;
5279;SDS011;2663;53.588;10.010;2022-11-15T08:25:43;23.33;;;14.17;;
5279;SDS011;2663;53.588;10.010;2022-11-15T08:28:10;24.90;;;13.73;;
5279;SDS011;2663;53.588;10.010;2022-11-15T08:30:37;22.23;;;12.73;;
5279;SDS011;2663;53.588;10.010;2022-11-15T08:33:11;23.67;;;12.17;;
5279;SDS011;2663;53.588;10.010;2022-11-15T08:35:39;26.00;;;12.97;;
5279;SDS011;2663;53.588;10.010;2022-11-15T08:38:07;29.57;;;13.93;;
5279;SDS011;2663;53.588;10.010;2022-11-15T08:40:34;22.70;;;13.43;;
5279;SDS011;2663;53.588;10.010;2022-11-15T08:43:01;24.17;;;14.13;;
5279;SDS011;2663;53.588;10.010;2022-11-15T08:45:29;20.27;;;12.77;;
5279;SDS011;2663;53.588;10.010;2022-11-15T08:47:56;25.10;;;14.20;;
5279;SDS011;2663;53.588;10.010;2022-11-15T08:50:23;28.00;;;14.67;;
5279;SDS011;2663;53.588;10.010;2022-11-15T08:52:50;31.10;;;15.03;;
5279;SDS011;2663;53.588;10.010;2022-11-15T08:55:17;26.30;;;15.63;;
5279;SDS011;2663;53.588;10.010;2022-11-15T08:57:43;28.47;;;14.70;;
5279;SDS011;2663;53.588;10.010;2022-11-15T09:00:11;36.83;;;18.90;;
5279;SDS011;2663;53.588;10.010;2022-11-15T09:02:39;30.40;;;16.60;;
5279;SDS011;2663;53.588;10.010;2022-11-15T09:05:06;26.27;;;14.50;;
5279;SDS011;2663;53.588;10.010;2022-11-15T09:07:33;21.23;;;12.37;;
5279;SDS011;2663;53.588;10.010;2022-11-15T09:10:00;28.50;;;14.67;;
5279;SDS011;2663;53.588;10.010;2022-11-15T09:12:27;24.07;;;14.10;;
5279;SDS011;2663;53.588;10.010;2022-11-15T09:14:54;27.90;;;15.10;;
5279;SDS011;2663;53.588;10.010;2022-11-15T09:17:20;23.20;;;13.20;;
5279;SDS011;2663;53.588;10.010;2022-11-15T09:19:50;24.47;;;13.57;;
5279;SDS011;2663;53.588;10.010;2022-11-15T09:22:17;29.27;;;15.40;;
5279;SDS011;2663;53.588;10.010;2022-11-15T09:24:44;23.87;;;14.70;;
5279;SDS011;2663;53.588;10.010;2022-11-15T09:27:10;27.77;;;14.40;;
5279;SDS011;2663;53.588;10.010;2022-11-15T09:29:38;27.53;;;15.43;;
5279;SDS011;2663;53.588;10.010;2022-11-15T09:32:05;23.03;;;13.70;;
5279;SDS011;2663;53.588;10.010;2022-11-15T09:34:32;20.17;;;13.00;;
5279;SDS011;2663;53.588;10.010;2022-11-15T09:36:58;23.60;;;14.17;;
5279;SDS011;2663;53.588;10.010;2022-11-15T09:39:25;25.43;;;14.73;;
5279;SDS011;2663;53.588;10.010;2022-11-15T09:44:57;22.70;;;15.10;;
5279;SDS011;2663;53.588;10.010;2022-11-15T09:50:49;30.93;;;14.53;;
5279;SDS011;2663;53.588;10.010;2022-11-15T09:53:26;22.07;;;13.80;;
5279;SDS011;2663;53.588;10.010;2022-11-15T09:56:22;36.10;;;14.57;;
5279;SDS011;2663;53.588;10.010;2022-11-15T10:04:39;29.10;;;16.57;;
5279;SDS011;2663;53.588;10.010;2022-11-15T10:07:13;35.90;;;20.00;;
5279;SDS011;2663;53.588;10.010;2022-11-15T10:09:51;28.60;;;15.20;;
5279;SDS011;2663;53.588;10.010;2022-11-15T10:12:21;20.17;;;12.97;;
5279;SDS011;2663;53.588;10.010;2022-11-15T10:14:49;23.50;;;13.47;;
5279;SDS011;2663;53.588;10.010;2022-11-15T10:20:17;20.57;;;13.30;;
5279;SDS011;2663;53.588;10.010;2022-11-15T10:25:27;20.43;;;12.80;;
5279;SDS011;2663;53.588;10.010;2022-11-15T10:28:09;20.77;;;12.43;;
5279;SDS011;2663;53.588;10.010;2022-11-15T10:30:37;28.70;;;12.80;;
5279;SDS011;2663;53.588;10.010;2022-11-15T10:33:10;23.57;;;13.20;;
5279;SDS011;2663;53.588;10.010;2022-11-15T10:35:38;24.03;;;12.40;;
5279;SDS011;2663;53.588;10.010;2022-11-15T10:38:06;20.47;;;12.03;;
5279;SDS011;2663;53.588;10.010;2022-11-15T10:40:34;29.10;;;12.63;;
5279;SDS011;2663;53.588;10.010;2022-11-15T10:43:19;21.67;;;12.50;;
5279;SDS011;2663;53.588;10.010;2022-11-15T10:45:46;26.43;;;13.53;;
5279;SDS011;2663;53.588;10.010;2022-11-15T10:50:40;19.53;;;11.73;;
5279;SDS011;2663;53.588;10.010;2022-11-15T10:53:33;21.10;;;12.60;;
5279;SDS011;2663;53.588;10.010;2022-11-15T10:56:11;13.77;;;9.30;;
5279;SDS011;2663;53.588;10.010;2022-11-15T10:58:42;30.37;;;11.30;;
5279;SDS011;2663;53.588;10.010;2022-11-15T11:01:11;13.90;;;9.70;;
5279;SDS011;2663;53.588;10.010;2022-11-15T11:03:41;14.67;;;9.97;;
5279;SDS011;2663;53.588;10.010;2022-11-15T11:08:52;15.70;;;9.20;;
5279;SDS011;2663;53.588;10.010;2022-11-15T11:11:24;14.10;;;8.83;;
5279;SDS011;2663;53.588;10.010;2022-11-15T11:13:51;20.33;;;10.37;;
5279;SDS011;2663;53.588;10.010;2022-11-15T11:18:49;22.33;;;10.30;;
5279;SDS011;2663;53.588;10.010;2022-11-15T11:21:49;17.37;;;10.63;;
5279;SDS011;2663;53.588;10.010;2022-11-15T11:24:32;20.43;;;10.40;;
5279;SDS011;2663;53.588;10.010;2022-11-15T11:29:44;19.07;;;10.23;;
5279;SDS011;2663;53.588;10.010;2022-11-15T11:35:13;16.37;;;10.83;;
5279;SDS011;2663;53.588;10.010;2022-11-15T11:37:47;15.60;;;10.40;;
5279;SDS011;2663;53.588;10.010;2022-11-15T11:51:41;33.60;;;16.53;;
5279;SDS011;2663;53.588;10.010;2022-11-15T11:54:14;26.70;;;13.87;;
5279;SDS011;2663;53.588;10.010;2022-11-15T11:56:48;51.40;;;23.97;;
5279;SDS011;2663;53.588;10.010;2022-11-15T12:02:21;19.50;;;9.77;;
5279;SDS011;2663;53.588;10.010;2022-11-15T12:04:58;18.60;;;9.73;;
5279;SDS011;2663;53.588;10.010;2022-11-15T12:07:34;21.73;;;10.33;;
5279;SDS011;2663;53.588;10.010;2022-11-15T12:10:11;22.37;;;9.50;;
5279;SDS011;2663;53.588;10.010;2022-11-15T12:12:44;17.60;;;10.10;;
5279;SDS011;2663;53.588;10.010;2022-11-15T12:15:18;26.60;;;11.23;;
5279;SDS011;2663;53.588;10.010;2022-11-15T12:17:48;41.67;;;11.83;;
5279;SDS011;2663;53.588;10.010;2022-11-15T12:20:16;15.53;;;10.33;;
5279;SDS011;2663;53.588;10.010;2022-11-15T12:22:58;21.53;;;9.60;;
5279;SDS011;2663;53.588;10.010;2022-11-15T12:25:36;17.20;;;10.20;;
5279;SDS011;2663;53.588;10.010;2022-11-15T12:29:11;22.80;;;9.23;;
5279;SDS011;2663;53.588;10.010;2022-11-15T12:34:01;14.13;;;9.67;;
5279;SDS011;2663;53.588;10.010;2022-11-15T12:36:37;16.30;;;9.60;;
5279;SDS011;2663;53.588;10.010;2022-11-15T12:39:07;14.90;;;9.10;;
5279;SDS011;2663;53.588;10.010;2022-11-15T12:41:44;16.43;;;9.00;;
5279;SDS011;2663;53.588;10.010;2022-11-15T13:02:23;12.30;;;8.43;;
5279;SDS011;2663;53.588;10.010;2022-11-15T13:04:52;15.67;;;8.97;;
5279;SDS011;2663;53.588;10.010;2022-11-15T13:17:50;16.47;;;8.30;;
5279;SDS011;2663;53.588;10.010;2022-11-15T13:20:22;15.60;;;8.80;;
5279;SDS011;2663;53.588;10.010;2022-11-15T13:26:04;13.60;;;10.40;;
5279;SDS011;2663;53.588;10.010;2022-11-15T13:28:34;18.80;;;9.60;;
5279;SDS011;2663;53.588;10.010;2022-11-15T13:31:05;17.07;;;10.57;;
5279;SDS011;2663;53.588;10.010;2022-11-15T13:33:47;21.27;;;10.07;;
5279;SDS011;2663;53.588;10.010;2022-11-15T13:36:21;22.77;;;11.07;;
5279;SDS011;2663;53.588;10.010;2022-11-15T13:38:54;21.13;;;8.70;;
5279;SDS011;2663;53.588;10.010;2022-11-15T13:41:24;14.73;;;8.67;;
5279;SDS011;2663;53.588;10.010;2022-11-15T13:43:59;13.33;;;8.70;;
5279;SDS011;2663;53.588;10.010;2022-11-15T13:46:30;19.03;;;8.80;;
5279;SDS011;2663;53.588;10.010;2022-11-15T13:49:03;18.10;;;10.33;;
5279;SDS011;2663;53.588;10.010;2022-11-15T13:51:50;15.30;;;8.30;;
5279;SDS011;2663;53.588;10.010;2022-11-15T13:57:24;18.70;;;11.10;;
5279;SDS011;2663;53.588;10.010;2022-11-15T14:00:04;16.43;;;9.30;;
5279;SDS011;2663;53.588;10.010;2022-11-15T14:02:33;14.30;;;9.40;;
5279;SDS011;2663;53.588;10.010;2022-11-15T14:05:17;14.60;;;8.90;;
5279;SDS011;2663;53.588;10.010;2022-11-15T14:07:54;14.40;;;9.30;;
5279;SDS011;2663;53.588;10.010;2022-11-15T14:10:27;31.40;;;15.47;;
5279;SDS011;2663;53.588;10.010;2022-11-15T14:12:57;19.63;;;10.53;;
5279;SDS011;2663;53.588;10.010;2022-11-15T14:15:25;16.03;;;9.23;;
5279;SDS011;2663;53.588;10.010;2022-11-15T14:17:57;18.17;;;9.20;;
5279;SDS011;2663;53.588;10.010;2022-11-15T14:23:47;16.80;;;8.70;;
5279;SDS011;2663;53.588;10.010;2022-11-15T14:25:53;27.63;;;12.33;;
5279;SDS011;2663;53.588;10.010;2022-11-15T14:30:51;15.07;;;9.07;;
5279;SDS011;2663;53.588;10.010;2022-11-15T14:35:49;17.63;;;9.33;;
5279;SDS011;2663;53.588;10.010;2022-11-15T14:38:17;13.20;;;8.47;;
5279;SDS011;2663;53.588;10.010;2022-11-15T14:40:44;14.27;;;9.50;;
5279;SDS011;2663;53.588;10.010;2022-11-15T14:43:11;14.90;;;9.13;;
5279;SDS011;2663;53.588;10.010;2022-11-15T14:45:39;13.70;;;7.80;;
5279;SDS011;2663;53.588;10.010;2022-11-15T14:48:06;11.00;;;7.57;;
5279;SDS011;2663;53.588;10.010;2022-11-15T14:50:33;15.53;;;8.40;;
5279;SDS011;2663;53.588;10.010;2022-11-15T14:53:00;12.83;;;8.33;;
5279;SDS011;2663;53.588;10.010;2022-11-15T14:55:28;13.50;;;8.57;;
5279;SDS011;2663;53.588;10.010;2022-11-15T14:58:02;13.87;;;9.90;;
5279;SDS011;2663;53.588;10.010;2022-11-15T15:00:31;10.97;;;8.10;;
5279;SDS011;2663;53.588;10.010;2022-11-15T15:03:00;12.30;;;8.03;;
5279;SDS011;2663;53.588;10.010;2022-11-15T15:05:32;16.57;;;9.93;;
5279;SDS011;2663;53.588;10.010;2022-11-15T15:08:00;21.07;;;9.80;;
5279;SDS011;2663;53.588;10.010;2022-11-15T15:10:30;15.90;;;8.60;;
5279;SDS011;2663;53.588;10.010;2022-11-15T15:13:08;12.83;;;8.63;;
5279;SDS011;2663;53.588;10.010;2022-11-15T15:15:44;18.27;;;9.03;;
5279;SDS011;2663;53.588;10.010;2022-11-15T15:18:12;14.70;;;9.00;;
5279;SDS011;2663;53.588;10.010;2022-11-15T15:20:39;15.30;;;9.30;;
5279;SDS011;2663;53.588;10.010;2022-11-15T15:23:14;12.63;;;8.50;;
5279;SDS011;2663;53.588;10.010;2022-11-15T15:25:43;14.07;;;7.93;;
5279;SDS011;2663;53.588;10.010;2022-11-15T15:28:12;14.13;;;8.53;;
5279;SDS011;2663;53.588;10.010;2022-11-15T15:30:39;19.10;;;9.37;;
5279;SDS011;2663;53.588;10.010;2022-11-15T15:33:05;13.20;;;7.83;;
5279;SDS011;2663;53.588;10.010;2022-11-15T15:35:33;11.47;;;8.37;;
5279;SDS011;2663;53.588;10.010;2022-11-15T15:38:00;14.03;;;8.83;;
5279;SDS011;2663;53.588;10.010;2022-11-15T15:40:28;13.97;;;8.70;;
5279;SDS011;2663;53.588;10.010;2022-11-15T15:42:57;16.87;;;9.43;;
5279;SDS011;2663;53.588;10.010;2022-11-15T15:45:25;16.77;;;8.97;;
5279;SDS011;2663;53.588;10.010;2022-11-15T15:47:53;15.73;;;9.00;;
5279;SDS011;2663;53.588;10.010;2022-11-15T15:50:22;16.10;;;9.30;;
5279;SDS011;2663;53.588;10.010;2022-11-15T15:52:54;11.47;;;7.77;;
5279;SDS011;2663;53.588;10.010;2022-11-15T15:55:24;18.40;;;11.00;;
5279;SDS011;2663;53.588;10.010;2022-11-15T15:57:51;22.23;;;9.73;;
5279;SDS011;2663;53.588;10.010;2022-11-15T16:00:19;18.27;;;9.33;;
5279;SDS011;2663;53.588;10.010;2022-11-15T16:02:47;14.50;;;8.80;;
5279;SDS011;2663;53.588;10.010;2022-11-15T16:05:14;23.77;;;9.40;;
5279;SDS011;2663;53.588;10.010;2022-11-15T16:07:41;29.30;;;12.90;;
5279;SDS011;2663;53.588;10.010;2022-11-15T16:10:25;30.47;;;16.00;;
5279;SDS011;2663;53.588;10.010;2022-11-15T16:12:54;16.20;;;10.40;;
5279;SDS011;2663;53.588;10.010;2022-11-15T16:15:22;10.70;;;8.30;;
5279;SDS011;2663;53.588;10.010;2022-11-15T16:17:51;18.47;;;10.60;;
5279;SDS011;2663;53.588;10.010;2022-11-15T16:20:46;13.00;;;8.47;;
5279;SDS011;2663;53.588;10.010;2022-11-15T16:23:17;14.93;;;9.40;;
5279;SDS011;2663;53.588;10.010;2022-11-15T16:25:49;16.30;;;8.23;;
5279;SDS011;2663;53.588;10.010;2022-11-15T16:28:22;14.60;;;8.57;;
5279;SDS011;2663;53.588;10.010;2022-11-15T16:30:58;11.90;;;8.47;;
5279;SDS011;2663;53.588;10.010;2022-11-15T16:33:27;13.40;;;8.97;;
5279;SDS011;2663;53.588;10.010;2022-11-15T16:35:54;17.10;;;8.50;;
5279;SDS011;2663;53.588;10.010;2022-11-15T16:38:20;16.47;;;9.10;;
5279;SDS011;2663;53.588;10.010;2022-11-15T16:40:47;21.57;;;9.43;;
5279;SDS011;2663;53.588;10.010;2022-11-15T16:43:14;14.20;;;8.73;;
5279;SDS011;2663;53.588;10.010;2022-11-15T16:45:41;15.73;;;9.03;;
5279;SDS011;2663;53.588;10.010;2022-11-15T16:48:15;15.77;;;10.47;;
5279;SDS011;2663;53.588;10.010;2022-11-15T16:50:48;14.30;;;9.57;;